Time;durP1;ratioP1;P1;durP2;ratioP2;P2;SDS_P1;SDS_P2;PMS_P1;PMS_P2;Temp;Humidity;BMP_temperature;BMP_pressure;BME280_temperature;BME280_humidity;BME280_pressure;Samples;Min_cycle;Max_cycle;Signal;HPM_P1;HPM_P2
2024/02/12 00:01:45;;;;;;;4.40;3.30;;;9.60;99.90;;;;;;5086565;28;20028;-63
2024/02/12 00:04:31;;;;;;;4.50;3.30;;;9.60;99.90;;;;;;5094696;28;20024;-63
2024/02/12 00:07:17;;;;;;;4.55;2.95;;;9.60;99.90;;;;;;5086393;28;20036;-62
2024/02/12 00:10:05;;;;;;;4.30;3.05;;;9.60;99.90;;;;;;5077621;28;20112;-63
2024/02/12 00:12:52;;;;;;;4.07;2.97;;;9.60;99.90;;;;;;5085474;28;20055;-63
2024/02/12 00:15:39;;;;;;;4.97;3.05;;;9.60;99.90;;;;;;5081247;28;20174;-63
2024/02/12 00:18:25;;;;;;;5.10;3.42;;;9.70;99.90;;;;;;5086967;28;20077;-63
2024/02/12 00:21:12;;;;;;;4.78;3.25;;;9.60;99.90;;;;;;5085376;28;20534;-63
2024/02/12 00:23:58;;;;;;;3.78;2.67;;;9.60;99.90;;;;;;5083854;28;20028;-63
2024/02/12 00:26:43;;;;;;;4.15;2.85;;;9.60;99.90;;;;;;5073308;28;20162;-63
2024/02/12 00:29:33;;;;;;;3.85;2.42;;;9.60;99.90;;;;;;5083538;28;20047;-63
2024/02/12 00:32:20;;;;;;;4.28;2.63;;;9.70;99.90;;;;;;5073572;28;20035;-62
2024/02/12 00:35:06;;;;;;;4.20;2.63;;;9.60;99.90;;;;;;5090582;28;20399;-63
2024/02/12 00:37:52;;;;;;;3.75;2.83;;;9.60;99.90;;;;;;5076892;28;22519;-62
2024/02/12 00:40:40;;;;;;;4.07;2.42;;;9.60;99.90;;;;;;5084296;28;20028;-63
2024/02/12 00:43:26;;;;;;;3.35;2.67;;;9.60;99.90;;;;;;5073351;28;20044;-63
2024/02/12 00:46:15;;;;;;;4.18;2.70;;;9.60;99.90;;;;;;5073175;28;20025;-63
2024/02/12 00:49:00;;;;;;;4.20;2.50;;;9.60;99.90;;;;;;5071717;28;20447;-62
2024/02/12 00:51:46;;;;;;;3.92;2.55;;;9.60;99.90;;;;;;5078454;28;20547;-62
2024/02/12 00:54:35;;;;;;;3.22;2.50;;;9.60;99.90;;;;;;5080871;28;20471;-63
2024/02/12 00:57:22;;;;;;;3.15;2.75;;;9.50;99.90;;;;;;5078789;28;20032;-67
2024/02/12 01:00:14;;;;;;;4.38;2.90;;;9.60;99.90;;;;;;5089346;28;20464;-66
2024/02/12 01:02:59;;;;;;;3.97;2.72;;;9.60;99.90;;;;;;5082486;28;20024;-68
2024/02/12 01:05:45;;;;;;;4.57;2.67;;;9.60;99.90;;;;;;5083528;28;20072;-67
2024/02/12 01:08:32;;;;;;;3.72;2.50;;;9.60;99.90;;;;;;5083933;28;20635;-66
2024/02/12 01:11:18;;;;;;;4.20;2.75;;;9.60;99.90;;;;;;5074873;28;20052;-67
2024/02/12 01:14:06;;;;;;;4.22;2.80;;;9.60;99.90;;;;;;5080825;28;20036;-67
2024/02/12 01:16:53;;;;;;;4.32;2.97;;;9.60;99.90;;;;;;5080850;28;20035;-67
2024/02/12 01:19:40;;;;;;;3.75;2.53;;;9.60;99.90;;;;;;5077213;28;20112;-66
2024/02/12 01:22:26;;;;;;;4.15;2.47;;;9.60;99.90;;;;;;5077367;28;20235;-67
2024/02/12 01:25:12;;;;;;;2.90;2.15;;;9.60;99.90;;;;;;5084379;28;20028;-66
2024/02/12 01:28:00;;;;;;;3.25;2.50;;;9.60;99.90;;;;;;5075687;28;20484;-66
2024/02/12 01:30:47;;;;;;;2.90;2.30;;;9.60;99.90;;;;;;5071933;28;20036;-65
2024/02/12 01:33:33;;;;;;;3.95;2.38;;;9.60;99.90;;;;;;5080917;28;20047;-66
2024/02/12 01:36:19;;;;;;;3.53;2.70;;;9.60;99.90;;;;;;5071744;28;20035;-66
2024/02/12 01:39:06;;;;;;;5.15;3.00;;;9.60;99.90;;;;;;5086635;28;20127;-66
2024/02/12 01:41:53;;;;;;;3.67;2.60;;;9.60;99.90;;;;;;5080961;28;20016;-66
2024/02/12 01:45:03;;;;;;;3.30;2.70;;;9.60;99.90;;;;;;5082188;28;20032;-66
2024/02/12 01:47:57;;;;;;;4.20;2.63;;;9.60;99.90;;;;;;5081760;28;20403;-66
2024/02/12 01:50:43;;;;;;;3.15;2.40;;;9.50;99.90;;;;;;5079394;28;20097;-66
2024/02/12 01:53:30;;;;;;;3.17;2.42;;;9.60;99.90;;;;;;5071808;28;20511;-66
2024/02/12 01:56:16;;;;;;;3.30;2.70;;;9.50;99.90;;;;;;5082051;28;20042;-66
2024/02/12 01:59:06;;;;;;;4.55;2.30;;;9.50;99.90;;;;;;5077865;28;20032;-66
2024/02/12 02:01:52;;;;;;;3.70;2.33;;;9.60;99.90;;;;;;5086976;28;20036;-66
2024/02/12 02:04:38;;;;;;;3.78;2.58;;;9.60;99.90;;;;;;5080885;28;20044;-66
2024/02/12 02:07:24;;;;;;;4.00;2.67;;;9.60;99.90;;;;;;5076433;28;20030;-66
2024/02/12 02:10:14;;;;;;;3.60;2.67;;;9.60;99.90;;;;;;5076047;28;20519;-66
2024/02/12 02:13:00;;;;;;;4.35;2.25;;;9.60;99.90;;;;;;5071326;28;20048;-66
2024/02/12 02:15:46;;;;;;;3.97;3.00;;;9.70;99.90;;;;;;5085210;28;20032;-66
2024/02/12 02:18:32;;;;;;;3.50;2.70;;;9.60;99.90;;;;;;5080972;28;20032;-66
2024/02/12 02:21:21;;;;;;;4.07;2.95;;;9.60;99.90;;;;;;5073756;28;20032;-66
2024/02/12 02:24:07;;;;;;;4.00;3.10;;;9.60;99.90;;;;;;5070209;28;20028;-66
2024/02/12 02:26:54;;;;;;;5.85;3.70;;;9.60;99.90;;;;;;5070977;28;20476;-66
2024/02/12 02:29:40;;;;;;;4.38;3.03;;;9.60;99.90;;;;;;5071417;28;20059;-66
2024/02/12 02:32:26;;;;;;;4.85;3.38;;;9.60;99.90;;;;;;5083871;28;20028;-66
2024/02/12 02:35:13;;;;;;;4.65;3.17;;;9.60;99.90;;;;;;5071551;28;20111;-66
2024/02/12 02:38:01;;;;;;;4.18;3.20;;;9.60;99.90;;;;;;5076962;28;20032;-65
2024/02/12 02:40:47;;;;;;;4.00;3.38;;;9.50;99.90;;;;;;5070776;28;20031;-66
2024/02/12 02:43:33;;;;;;;4.03;2.83;;;9.60;99.90;;;;;;5077096;28;20169;-67
2024/02/12 02:46:28;;;;;;;5.32;3.08;;;9.60;99.90;;;;;;5071705;28;20028;-66
2024/02/12 02:49:14;;;;;;;;;;;9.60;99.90;;;;;;5083477;28;20049;-67
2024/02/12 02:52:00;;;;;;;4.43;3.33;;;9.60;99.90;;;;;;5082016;28;19995;-67
2024/02/12 02:54:47;;;;;;;5.55;3.38;;;9.50;99.90;;;;;;5086535;28;20475;-66
2024/02/12 02:57:34;;;;;;;4.00;3.20;;;9.50;99.90;;;;;;5066951;28;20028;-65
2024/02/12 03:00:20;;;;;;;4.68;3.22;;;9.60;99.90;;;;;;5067687;28;20039;-66
2024/02/12 03:03:08;;;;;;;4.90;3.78;;;9.50;99.90;;;;;;5075631;28;20441;-65
2024/02/12 03:05:54;;;;;;;4.85;3.50;;;9.60;99.90;;;;;;5076901;28;20021;-65
2024/02/12 03:08:40;;;;;;;4.72;3.63;;;9.50;99.90;;;;;;5077608;28;20087;-65
2024/02/12 03:11:27;;;;;;;4.70;3.83;;;9.50;99.90;;;;;;5094849;28;20094;-66
2024/02/12 03:14:12;;;;;;;5.10;3.70;;;9.50;99.90;;;;;;5093084;28;20032;-66
2024/02/12 03:16:58;;;;;;;4.55;3.42;;;9.50;99.90;;;;;;5071621;28;20028;-66
2024/02/12 03:19:44;;;;;;;5.13;3.60;;;9.50;99.90;;;;;;5081554;28;20040;-65
2024/02/12 03:22:33;;;;;;;5.13;3.78;;;9.50;99.90;;;;;;5082660;28;20031;-70
2024/02/12 03:25:19;;;;;;;5.95;3.88;;;9.60;99.90;;;;;;5059646;28;20028;-71
2024/02/12 03:28:05;;;;;;;5.07;4.40;;;9.60;99.90;;;;;;5072657;28;20147;-70
2024/02/12 03:30:51;;;;;;;5.43;3.90;;;9.60;99.90;;;;;;5077169;28;20488;-70
2024/02/12 03:33:37;;;;;;;5.10;3.95;;;9.50;99.90;;;;;;5066437;28;20024;-70
2024/02/12 03:36:23;;;;;;;4.82;3.80;;;9.50;99.90;;;;;;5069393;28;20040;-71
2024/02/12 03:39:14;;;;;;;4.82;4.03;;;9.60;99.90;;;;;;5071889;28;20129;-71
2024/02/12 03:42:00;;;;;;;6.10;4.00;;;9.60;99.90;;;;;;5073724;28;20487;-70
2024/02/12 03:44:46;;;;;;;5.10;3.95;;;9.60;99.90;;;;;;5077848;28;20507;-70
2024/02/12 03:47:38;;;;;;;5.63;4.00;;;9.60;99.90;;;;;;5080192;28;20028;-70
2024/02/12 03:59:53;;;;;;;6.10;4.60;;;9.60;99.90;;;;;;5072282;28;20057;-71
2024/02/12 04:02:39;;;;;;;7.35;5.20;;;9.60;99.90;;;;;;5072590;28;20044;-70
2024/02/12 04:05:25;;;;;;;6.10;4.70;;;9.60;99.90;;;;;;5084704;28;20031;-65
2024/02/12 04:08:11;;;;;;;8.20;5.55;;;9.60;99.90;;;;;;5076264;28;20048;-65
2024/02/12 04:10:57;;;;;;;8.32;6.43;;;9.60;99.90;;;;;;5074005;28;20033;-65
2024/02/12 04:13:46;;;;;;;7.40;5.82;;;9.60;99.90;;;;;;5067884;28;20028;-64
2024/02/12 04:16:32;;;;;;;6.55;5.32;;;9.60;99.90;;;;;;5075109;28;20036;-65
2024/02/12 04:19:19;;;;;;;7.38;5.53;;;9.60;99.90;;;;;;5081520;28;20054;-65
2024/02/12 04:22:09;;;;;;;7.70;6.10;;;9.70;99.90;;;;;;5077996;28;20030;-65
2024/02/12 04:24:55;;;;;;;8.60;5.70;;;9.70;99.90;;;;;;5071147;28;20035;-65
2024/02/12 04:27:43;;;;;;;8.55;6.35;;;9.70;99.90;;;;;;5069795;28;20025;-65
2024/02/12 04:30:29;;;;;;;8.55;5.90;;;9.70;99.90;;;;;;5076641;28;20499;-66
2024/02/12 04:33:16;;;;;;;8.57;6.82;;;9.80;99.90;;;;;;5068117;28;20119;-66
2024/02/12 04:36:02;;;;;;;8.57;6.05;;;9.80;99.90;;;;;;5081061;28;20479;-67
2024/02/12 04:38:48;;;;;;;9.85;6.55;;;9.80;99.90;;;;;;5074880;28;20028;-66
2024/02/12 04:41:41;;;;;;;8.57;6.10;;;9.80;99.90;;;;;;5079720;28;20028;-66
2024/02/12 04:44:27;;;;;;;11.40;6.50;;;9.90;99.90;;;;;;5071876;28;20546;-67
2024/02/12 04:47:14;;;;;;;8.07;5.72;;;9.90;99.90;;;;;;5073708;28;20553;-66
2024/02/12 04:50:00;;;;;;;7.35;5.75;;;9.90;99.90;;;;;;5073344;28;20040;-67
2024/02/12 04:52:46;;;;;;;8.52;6.10;;;9.90;99.90;;;;;;5077971;28;20028;-66
2024/02/12 04:55:32;;;;;;;7.63;5.47;;;9.90;99.90;;;;;;5072453;28;20123;-66
2024/02/12 04:58:18;;;;;;;9.73;6.35;;;9.90;99.90;;;;;;5062572;28;20505;-67
2024/02/12 05:01:07;;;;;;;7.60;5.82;;;10.00;99.90;;;;;;5071791;28;20036;-66
2024/02/12 05:03:54;;;;;;;7.47;5.18;;;10.00;99.90;;;;;;5078096;28;20016;-65
2024/02/12 05:06:39;;;;;;;7.20;5.13;;;10.10;99.90;;;;;;5084377;28;20082;-67
2024/02/12 05:09:25;;;;;;;7.97;5.55;;;10.00;99.90;;;;;;5062325;28;20048;-67
2024/02/12 05:12:11;;;;;;;9.25;5.78;;;10.10;99.90;;;;;;5072149;28;20052;-68
2024/02/12 05:14:58;;;;;;;9.48;5.95;;;10.00;99.90;;;;;;5070563;28;20507;-67
2024/02/12 05:18:06;;;;;;;9.45;6.57;;;10.00;99.90;;;;;;5064965;28;20032;-67
2024/02/12 05:23:57;;;;;;;9.30;6.32;;;10.00;99.90;;;;;;5080946;28;20016;-67
2024/02/12 05:26:43;;;;;;;9.15;7.03;;;10.00;99.90;;;;;;5078869;28;20029;-67
2024/02/12 05:29:29;;;;;;;10.50;6.88;;;9.90;99.90;;;;;;5087819;28;20047;-67
2024/02/12 05:32:16;;;;;;;10.77;7.70;;;9.90;99.90;;;;;;5074012;28;20040;-68
2024/02/12 05:35:02;;;;;;;11.10;7.28;;;9.90;99.90;;;;;;5085571;28;20028;-61
2024/02/12 05:37:48;;;;;;;11.30;7.40;;;10.00;99.90;;;;;;5065175;28;20029;-65
2024/02/12 05:40:35;;;;;;;10.90;7.32;;;10.00;99.90;;;;;;5077307;28;20040;-63
2024/02/12 05:43:21;;;;;;;13.05;8.23;;;9.90;99.90;;;;;;5083912;28;20589;-61
2024/02/12 05:46:07;;;;;;;11.63;8.50;;;9.90;99.90;;;;;;5082842;28;20657;-61
2024/02/12 05:48:54;;;;;;;12.80;8.07;;;9.90;99.90;;;;;;5070021;28;20099;-62
2024/02/12 05:51:40;;;;;;;12.50;8.60;;;9.90;99.90;;;;;;5072976;28;20035;-62
2024/02/12 05:54:26;;;;;;;11.80;7.45;;;9.90;99.90;;;;;;5077350;28;20032;-62
2024/02/12 05:57:12;;;;;;;11.80;7.88;;;10.00;99.90;;;;;;5077149;28;20032;-62
2024/02/12 05:59:59;;;;;;;12.85;8.85;;;10.00;99.90;;;;;;5070139;28;20449;-62
2024/02/12 06:02:45;;;;;;;15.02;8.80;;;10.00;99.90;;;;;;5074374;28;20472;-62
2024/02/12 06:05:31;;;;;;;12.88;8.60;;;10.10;99.90;;;;;;5075045;28;20480;-62
2024/02/12 06:08:16;;;;;;;13.10;8.70;;;10.10;99.90;;;;;;5073999;28;20184;-62
2024/02/12 06:11:02;;;;;;;11.68;8.07;;;10.10;99.90;;;;;;5081967;28;20119;-62
2024/02/12 06:13:48;;;;;;;12.60;8.77;;;10.10;99.90;;;;;;5080077;28;20033;-62
2024/02/12 06:16:35;;;;;;;16.75;10.15;;;10.10;99.90;;;;;;5070914;28;20485;-62
2024/02/12 06:19:21;;;;;;;13.98;10.38;;;10.20;99.90;;;;;;5076077;28;20299;-62
2024/02/12 06:22:09;;;;;;;13.95;8.88;;;10.20;99.90;;;;;;5094274;28;20032;-62
2024/02/12 06:24:55;;;;;;;15.00;9.70;;;10.20;99.90;;;;;;5078243;28;20039;-60
2024/02/12 06:27:44;;;;;;;13.57;9.45;;;10.20;99.90;;;;;;5080499;28;20443;-64
2024/02/12 06:30:30;;;;;;;14.82;9.20;;;10.20;99.90;;;;;;5072878;28;20488;-61
2024/02/12 06:33:16;;;;;;;11.80;8.45;;;10.20;99.90;;;;;;5075337;28;20028;-61
2024/02/12 06:36:02;;;;;;;13.05;9.18;;;10.20;99.90;;;;;;5067113;28;20184;-62
2024/02/12 06:38:48;;;;;;;13.60;8.50;;;10.20;99.90;;;;;;5070336;28;20032;-62
2024/02/12 06:41:34;;;;;;;12.80;7.90;;;10.20;99.90;;;;;;5077454;28;20058;-62
2024/02/12 06:44:21;;;;;;;14.85;8.68;;;10.20;99.90;;;;;;5076065;28;20055;-62
2024/02/12 06:47:08;;;;;;;14.00;8.80;;;10.30;99.90;;;;;;5070422;28;20035;-62
2024/02/12 06:49:54;;;;;;;14.63;9.50;;;10.20;99.90;;;;;;5070069;28;20400;-61
2024/02/12 06:52:40;;;;;;;14.18;9.23;;;10.20;99.90;;;;;;5073084;28;20043;-62
2024/02/12 06:55:27;;;;;;;13.93;8.77;;;10.20;99.90;;;;;;5077961;28;20079;-63
2024/02/12 06:58:13;;;;;;;15.55;9.15;;;10.20;99.90;;;;;;5078160;28;20032;-62
2024/02/12 07:00:59;;;;;;;14.80;9.25;;;10.20;99.90;;;;;;5072218;28;20414;-62
2024/02/12 07:03:46;;;;;;;12.15;8.43;;;10.20;99.90;;;;;;5076771;28;20072;-62
2024/02/12 07:06:33;;;;;;;13.75;8.85;;;10.20;99.90;;;;;;5074981;28;20039;-62
2024/02/12 07:09:21;;;;;;;12.68;9.13;;;10.20;99.90;;;;;;5081518;28;20378;-61
2024/02/12 07:12:07;;;;;;;14.15;9.50;;;10.20;99.90;;;;;;5060317;28;20044;-62
2024/02/12 07:14:53;;;;;;;15.02;8.23;;;10.20;99.90;;;;;;5081979;28;20040;-62
2024/02/12 07:17:39;;;;;;;13.88;8.02;;;10.20;99.90;;;;;;5078855;28;20020;-62
2024/02/12 07:20:25;;;;;;;13.50;8.63;;;10.20;99.90;;;;;;5064620;28;20036;-62
2024/02/12 07:23:11;;;;;;;13.68;8.30;;;10.20;99.90;;;;;;5077577;28;20772;-62
2024/02/12 07:25:57;;;;;;;13.73;7.57;;;10.20;99.90;;;;;;5070131;28;20021;-63
2024/02/12 07:28:42;;;;;;;13.98;7.53;;;10.10;99.90;;;;;;5071775;28;20059;-63
2024/02/12 07:31:28;;;;;;;13.30;8.32;;;10.10;99.90;;;;;;5071277;28;20398;-63
2024/02/12 07:34:14;;;;;;;11.18;7.80;;;10.10;99.90;;;;;;5069017;28;20037;-63
2024/02/12 07:37:02;;;;;;;13.82;8.98;;;10.20;99.90;;;;;;5066366;28;20025;-62
2024/02/12 07:39:49;;;;;;;13.20;8.18;;;10.20;99.90;;;;;;5076833;28;20098;-62
2024/02/12 07:42:35;;;;;;;13.77;8.45;;;10.20;99.90;;;;;;5071177;28;20111;-63
2024/02/12 07:45:21;;;;;;;15.35;8.82;;;10.20;99.90;;;;;;5075421;28;20071;-62
2024/02/12 07:48:08;;;;;;;13.75;7.97;;;10.20;99.90;;;;;;5082621;28;20526;-63
2024/02/12 07:50:55;;;;;;;12.38;7.13;;;10.20;99.90;;;;;;5084800;28;20033;-62
2024/02/12 07:53:41;;;;;;;13.55;8.13;;;10.20;99.90;;;;;;5073130;28;20476;-62
2024/02/12 07:56:27;;;;;;;13.60;8.18;;;10.20;99.90;;;;;;5070512;28;20146;-62
2024/02/12 07:59:13;;;;;;;15.55;8.10;;;10.20;99.90;;;;;;5078168;28;20109;-63
2024/02/12 08:02:02;;;;;;;15.77;8.13;;;10.30;99.90;;;;;;5079934;28;20047;-62
2024/02/12 08:04:48;;;;;;;13.20;8.85;;;10.30;99.90;;;;;;5074456;28;20051;-63
2024/02/12 08:07:34;;;;;;;11.48;8.25;;;10.30;99.90;;;;;;5074413;28;20070;-62
2024/02/12 08:10:20;;;;;;;9.98;6.68;;;10.30;99.90;;;;;;5058229;28;20480;-62
2024/02/12 08:13:06;;;;;;;14.10;8.23;;;10.30;99.90;;;;;;5077159;28;20419;-62
2024/02/12 08:15:52;;;;;;;12.68;8.20;;;10.30;99.90;;;;;;5067810;28;20404;-62
2024/02/12 08:18:38;;;;;;;12.65;7.93;;;10.30;99.90;;;;;;5087889;28;20055;-62
2024/02/12 08:21:24;;;;;;;12.95;8.13;;;10.30;99.90;;;;;;5080076;28;20111;-64
2024/02/12 08:24:10;;;;;;;13.13;7.90;;;10.30;99.90;;;;;;5077724;28;20055;-62
2024/02/12 08:26:56;;;;;;;14.82;8.13;;;10.40;99.90;;;;;;5073531;28;20029;-62
2024/02/12 08:29:42;;;;;;;14.27;8.57;;;10.40;99.90;;;;;;5077501;28;20063;-62
2024/02/12 08:32:28;;;;;;;13.27;7.22;;;10.40;99.90;;;;;;5081868;28;20050;-62
2024/02/12 08:35:14;;;;;;;14.23;7.82;;;10.40;99.90;;;;;;5083963;28;20044;-62
2024/02/12 08:38:00;;;;;;;12.65;8.30;;;10.50;99.90;;;;;;5075515;28;20054;-62
2024/02/12 08:40:50;;;;;;;13.25;7.63;;;10.40;99.90;;;;;;5080159;28;20047;-62
2024/02/12 08:43:37;;;;;;;12.98;7.78;;;10.50;99.90;;;;;;5080006;28;20103;-63
2024/02/12 08:46:23;;;;;;;11.05;6.78;;;10.50;99.90;;;;;;5071866;28;20024;-62
2024/02/12 08:49:09;;;;;;;13.90;7.50;;;10.50;99.90;;;;;;5079493;28;20523;-62
2024/02/12 08:51:56;;;;;;;12.48;7.43;;;10.50;99.90;;;;;;5084826;28;20028;-62
2024/02/12 08:54:42;;;;;;;13.02;8.25;;;10.50;99.90;;;;;;5073453;28;20048;-62
2024/02/12 08:57:28;;;;;;;13.18;7.18;;;10.50;99.90;;;;;;5083864;28;20071;-63
2024/02/12 09:00:21;;;;;;;12.05;6.85;;;10.50;99.90;;;;;;5081210;28;20123;-63
2024/02/12 09:03:07;;;;;;;8.85;6.45;;;10.50;99.90;;;;;;5070114;28;20056;-63
2024/02/12 09:05:53;;;;;;;15.88;8.10;;;10.50;99.90;;;;;;5068105;28;20069;-62
2024/02/12 09:08:41;;;;;;;14.45;7.35;;;10.40;99.90;;;;;;5085018;28;20071;-62
2024/02/12 13:48:46;;;;;;;7.25;3.88;;;11.10;99.90;;;;;;5076739;28;20047;-73
2024/02/12 13:51:34;;;;;;;8.48;4.47;;;11.00;99.90;;;;;;5077798;28;20499;-72
2024/02/12 13:54:20;;;;;;;6.65;3.72;;;11.00;99.90;;;;;;5094430;28;20488;-72
2024/02/12 13:57:06;;;;;;;7.97;3.72;;;10.90;99.90;;;;;;5092867;28;20040;-72
2024/02/12 13:59:52;;;;;;;5.65;3.60;;;10.80;99.90;;;;;;5089781;28;20044;-72
2024/02/12 14:02:38;;;;;;;10.18;3.65;;;10.80;99.90;;;;;;5108030;27;20430;-71
2024/02/12 14:05:24;;;;;;;6.45;3.78;;;10.80;99.90;;;;;;5112410;27;20039;-74
2024/02/12 14:08:11;;;;;;;6.43;4.10;;;10.80;99.90;;;;;;5091339;28;20044;-70
2024/02/12 14:10:57;;;;;;;6.95;4.47;;;10.80;99.90;;;;;;5097724;28;20040;-70
2024/02/12 14:13:44;;;;;;;5.55;3.53;;;10.80;99.90;;;;;;5102947;28;20036;-71
2024/02/12 14:16:32;;;;;;;5.35;3.58;;;10.80;99.90;;;;;;5090984;28;20067;-70
2024/02/12 14:19:18;;;;;;;5.80;3.72;;;10.80;99.90;;;;;;5094002;28;20039;-69
2024/02/12 14:22:07;;;;;;;5.90;3.33;;;10.90;99.90;;;;;;5100572;28;20069;-71
2024/02/12 14:24:54;;;;;;;4.75;3.10;;;10.90;99.90;;;;;;5074945;28;20117;-70
2024/02/12 14:27:40;;;;;;;4.50;2.80;;;10.90;99.90;;;;;;5075963;28;20032;-70
2024/02/12 14:30:28;;;;;;;6.00;3.22;;;10.90;99.90;;;;;;5082846;28;20051;-70
2024/02/12 14:33:14;;;;;;;7.10;3.20;;;11.00;99.90;;;;;;5094635;28;20035;-70
2024/02/12 14:36:00;;;;;;;6.65;2.80;;;11.00;99.90;;;;;;5091099;28;20032;-70
2024/02/12 14:38:47;;;;;;;6.32;3.25;;;11.00;99.90;;;;;;5096161;28;20514;-70
2024/02/12 14:41:33;;;;;;;6.50;3.88;;;11.00;99.90;;;;;;5091816;28;20093;-70
2024/02/12 14:44:18;;;;;;;5.22;3.33;;;11.00;99.90;;;;;;5096530;28;20059;-70
2024/02/12 14:47:05;;;;;;;8.05;4.05;;;11.00;99.90;;;;;;5100409;28;20042;-70
2024/02/12 14:49:51;;;;;;;4.97;3.25;;;11.10;99.90;;;;;;5094614;28;20051;-71
2024/02/12 14:52:38;;;;;;;5.18;3.35;;;11.00;99.90;;;;;;5085479;28;20035;-70
2024/02/12 14:55:26;;;;;;;6.07;3.25;;;11.00;99.90;;;;;;5100099;28;20126;-71
2024/02/12 14:58:12;;;;;;;6.72;3.15;;;11.00;99.90;;;;;;5095037;28;20114;-70
2024/02/12 15:01:00;;;;;;;6.03;3.92;;;10.90;99.90;;;;;;5110367;28;20040;-70
2024/02/12 15:03:47;;;;;;;4.20;3.45;;;10.90;99.90;;;;;;5093261;28;20066;-71
2024/02/12 15:06:33;;;;;;;6.43;3.10;;;11.00;99.90;;;;;;5101699;28;20070;-70
2024/02/12 15:09:24;;;;;;;5.50;3.67;;;10.90;99.90;;;;;;5080682;28;20066;-70
2024/02/12 15:12:11;;;;;;;3.88;2.80;;;10.90;99.90;;;;;;5087031;28;20392;-70
2024/02/12 15:14:57;;;;;;;4.97;3.10;;;10.80;99.90;;;;;;5096265;28;20547;-71
2024/02/12 15:17:46;;;;;;;7.50;3.15;;;10.80;99.90;;;;;;5091530;28;20065;-70
2024/02/12 15:20:33;;;;;;;5.35;3.80;;;10.60;99.50;;;;;;5102851;28;20054;-70
2024/02/12 15:23:19;;;;;;;3.75;2.72;;;10.50;99.70;;;;;;5089902;28;20489;-70
2024/02/12 15:26:05;;;;;;;3.78;2.63;;;10.50;99.50;;;;;;5092457;28;20476;-70
2024/02/12 15:28:51;;;;;;;6.35;3.05;;;10.40;99.50;;;;;;5089180;28;20056;-70
2024/02/12 15:31:41;;;;;;;4.40;2.78;;;10.50;99.70;;;;;;5093505;28;20115;-70
2024/02/12 15:34:27;;;;;;;4.00;2.80;;;10.50;99.60;;;;;;5092098;28;20043;-71
2024/02/12 15:37:15;;;;;;;4.78;2.60;;;10.50;99.80;;;;;;5089807;28;20033;-70
2024/02/12 15:40:01;;;;;;;5.18;2.83;;;10.50;99.70;;;;;;5098926;28;20044;-70
2024/02/12 15:42:48;;;;;;;5.00;3.22;;;10.50;99.70;;;;;;5092630;28;20047;-70
2024/02/12 15:45:34;;;;;;;4.57;3.35;;;10.50;99.60;;;;;;5100576;28;20534;-70
2024/02/12 15:48:25;;;;;;;3.63;2.75;;;10.40;99.30;;;;;;5102530;28;20040;-70
2024/02/12 15:51:14;;;;;;;4.90;3.35;;;10.50;99.50;;;;;;5091920;28;20090;-70
2024/02/12 15:54:00;;;;;;;4.30;2.88;;;10.50;99.60;;;;;;5085668;28;20032;-70
2024/02/12 15:56:50;;;;;;;4.97;3.22;;;10.50;99.60;;;;;;5083294;28;20041;-70
2024/02/12 15:59:36;;;;;;;5.13;3.50;;;10.50;99.50;;;;;;5108802;28;20048;-63
2024/02/12 16:02:22;;;;;;;4.32;3.10;;;10.50;99.50;;;;;;5112870;28;20074;-64
2024/02/12 16:05:46;;;;;;;4.53;3.20;;;10.50;99.50;;;;;;5086729;28;20157;-63
2024/02/12 16:08:36;;;;;;;6.80;3.72;;;10.50;99.50;;;;;;5102008;28;20039;-64
2024/02/12 16:11:23;;;;;;;4.90;3.53;;;10.50;99.50;;;;;;5102709;28;20031;-63
2024/02/12 16:14:09;;;;;;;5.50;3.40;;;10.50;99.40;;;;;;5092723;28;20043;-64
2024/02/12 16:16:57;;;;;;;5.75;3.40;;;10.50;99.30;;;;;;5098168;28;20138;-63
2024/02/12 16:19:43;;;;;;;6.63;3.33;;;10.40;99.30;;;;;;5095970;28;20038;-64
2024/02/12 16:22:29;;;;;;;5.45;3.28;;;10.40;99.20;;;;;;5098871;28;20484;-63
2024/02/12 16:25:15;;;;;;;5.38;3.40;;;10.40;99.20;;;;;;5103281;28;20495;-63
2024/02/12 16:28:03;;;;;;;5.95;3.75;;;10.30;99.20;;;;;;5085470;28;20582;-64
2024/02/12 16:30:49;;;;;;;4.97;3.20;;;10.30;99.20;;;;;;5089213;28;20079;-63
2024/02/12 16:33:35;;;;;;;6.20;4.28;;;10.30;99.30;;;;;;5089605;28;20040;-63
2024/02/12 16:36:21;;;;;;;6.20;3.40;;;10.30;99.30;;;;;;5095323;28;20044;-63
2024/02/12 16:39:12;;;;;;;5.55;3.88;;;10.30;99.30;;;;;;5101159;28;20107;-63
2024/02/12 16:41:58;;;;;;;5.75;4.00;;;10.30;99.30;;;;;;5104715;28;20027;-63
2024/02/12 16:44:44;;;;;;;5.70;3.83;;;10.30;99.30;;;;;;5084780;28;20115;-64
2024/02/12 16:47:31;;;;;;;5.82;4.05;;;10.20;99.30;;;;;;5100082;28;20028;-64
2024/02/12 16:50:17;;;;;;;7.25;4.60;;;10.20;99.40;;;;;;5101238;28;20135;-63
2024/02/12 16:53:03;;;;;;;6.38;4.97;;;10.20;99.50;;;;;;5086738;28;20032;-63
2024/02/12 16:55:49;;;;;;;7.15;4.60;;;10.10;99.50;;;;;;5101532;28;20078;-63
2024/02/12 16:58:35;;;;;;;6.68;4.90;;;10.10;99.50;;;;;;5100079;28;20556;-64
2024/02/12 17:01:24;;;;;;;7.57;4.15;;;10.10;99.50;;;;;;5099910;28;20036;-63
2024/02/12 17:04:12;;;;;;;7.63;4.43;;;10.20;99.60;;;;;;5098073;28;20036;-63
2024/02/12 17:06:59;;;;;;;7.13;4.88;;;10.10;99.60;;;;;;5100051;28;20540;-64
2024/02/12 17:09:45;;;;;;;5.18;4.05;;;10.10;99.70;;;;;;5093412;28;20052;-63
2024/02/12 17:12:31;;;;;;;6.53;4.28;;;10.00;99.80;;;;;;5097394;28;20052;-64
2024/02/12 17:15:19;;;;;;;7.47;3.72;;;10.00;99.90;;;;;;5098259;28;20044;-63
2024/02/12 17:18:08;;;;;;;5.50;3.95;;;10.00;99.90;;;;;;5100789;28;20114;-63
2024/02/12 17:20:55;;;;;;;6.72;4.85;;;10.00;99.90;;;;;;5101844;28;20048;-63
2024/02/12 17:23:41;;;;;;;7.80;4.18;;;10.00;99.90;;;;;;5095372;28;20036;-63
2024/02/12 17:26:27;;;;;;;5.95;4.45;;;9.90;99.90;;;;;;5098167;28;20131;-63
2024/02/12 17:29:13;;;;;;;7.70;4.50;;;9.90;99.90;;;;;;5090772;28;20079;-64
2024/02/12 17:32:00;;;;;;;5.60;4.10;;;9.90;99.90;;;;;;5099274;28;20446;-63
2024/02/12 17:34:47;;;;;;;6.53;4.55;;;9.90;99.90;;;;;;5097422;28;20044;-66
2024/02/12 17:37:33;;;;;;;6.22;4.32;;;9.90;99.90;;;;;;5098341;28;20039;-69
2024/02/12 17:40:19;;;;;;;12.23;4.90;;;9.90;99.90;;;;;;5102865;28;20384;-66
2024/02/12 17:43:06;;;;;;;8.18;4.88;;;9.90;99.90;;;;;;5100347;28;20372;-66
2024/02/12 17:45:52;;;;;;;8.07;5.25;;;9.80;99.90;;;;;;5096467;28;20116;-66
2024/02/12 17:48:38;;;;;;;7.28;5.07;;;9.80;99.90;;;;;;5094317;28;20048;-67
2024/02/12 17:51:24;;;;;;;13.25;5.68;;;9.80;99.90;;;;;;5093603;28;20044;-67
2024/02/12 17:54:12;;;;;;;9.43;6.80;;;9.80;99.90;;;;;;5105116;28;20039;-67
2024/02/12 17:56:58;;;;;;;12.70;6.80;;;9.80;99.90;;;;;;5095401;28;20076;-67
2024/02/12 17:59:46;;;;;;;9.65;5.88;;;9.80;99.90;;;;;;5100580;28;20040;-67
2024/02/12 18:02:32;;;;;;;7.30;5.65;;;9.80;99.90;;;;;;5095281;28;20128;-67
2024/02/12 18:05:18;;;;;;;8.95;5.53;;;9.90;99.90;;;;;;5093429;28;20093;-67
2024/02/12 18:08:04;;;;;;;6.97;5.38;;;9.90;99.90;;;;;;5101729;28;20549;-67
2024/02/12 18:10:50;;;;;;;12.57;6.90;;;9.90;99.90;;;;;;5097064;28;20080;-67
2024/02/12 18:13:36;;;;;;;8.45;6.03;;;9.90;99.90;;;;;;5090697;28;20167;-67
2024/02/12 18:16:22;;;;;;;11.93;6.93;;;9.90;99.90;;;;;;5092978;28;20128;-68
2024/02/12 18:19:09;;;;;;;10.68;6.10;;;9.90;99.90;;;;;;5098582;28;20088;-68
2024/02/12 18:21:55;;;;;;;11.93;8.02;;;9.90;99.90;;;;;;5098671;28;20035;-67
2024/02/12 18:24:41;;;;;;;14.27;9.40;;;9.90;99.90;;;;;;5096620;28;20040;-67
2024/02/12 18:27:27;;;;;;;21.55;13.45;;;9.90;99.90;;;;;;5099595;28;20514;-67
2024/02/12 18:30:14;;;;;;;16.35;10.60;;;9.90;99.90;;;;;;5080615;28;20051;-65
2024/02/12 18:33:00;;;;;;;16.63;10.20;;;9.80;99.90;;;;;;5073642;28;20142;-65
2024/02/12 18:35:47;;;;;;;16.00;9.65;;;9.80;99.90;;;;;;5091788;28;20039;-65
2024/02/12 18:38:35;;;;;;;12.10;8.23;;;9.90;99.90;;;;;;5083357;28;20119;-66
2024/02/12 18:41:23;;;;;;;14.75;8.55;;;9.90;99.90;;;;;;5096415;28;20040;-65
2024/02/12 18:44:09;;;;;;;11.35;7.53;;;9.80;99.90;;;;;;5096651;28;20130;-65
2024/02/12 18:46:56;;;;;;;10.35;6.90;;;9.80;99.90;;;;;;5091787;28;20040;-65
2024/02/12 18:49:42;;;;;;;11.65;6.75;;;9.80;99.90;;;;;;5099028;28;20064;-65
2024/02/12 18:52:29;;;;;;;10.15;6.47;;;9.80;99.90;;;;;;5095173;28;20040;-64
2024/02/12 18:55:15;;;;;;;10.18;6.30;;;9.80;99.90;;;;;;5095023;28;20044;-65
2024/02/12 18:58:02;;;;;;;10.18;6.68;;;9.80;99.90;;;;;;5101695;28;20047;-65
2024/02/12 19:00:48;;;;;;;9.32;7.18;;;9.80;99.90;;;;;;5097453;28;20369;-65
2024/02/12 19:03:34;;;;;;;10.50;6.95;;;9.70;99.90;;;;;;5102214;28;20031;-65
2024/02/12 19:06:23;;;;;;;10.13;7.05;;;9.70;99.90;;;;;;5098307;28;20118;-65
2024/02/12 19:09:09;;;;;;;9.30;6.45;;;9.70;99.90;;;;;;5092091;28;20492;-63
2024/02/12 19:11:55;;;;;;;9.23;6.22;;;9.70;99.90;;;;;;5093093;28;20464;-63
2024/02/12 19:14:42;;;;;;;9.73;6.60;;;9.60;99.90;;;;;;5108821;28;20048;-63
2024/02/12 19:17:28;;;;;;;14.73;7.82;;;9.70;99.90;;;;;;5118321;28;20092;-64
2024/02/12 19:20:14;;;;;;;9.13;6.03;;;9.60;99.90;;;;;;5095345;28;20047;-63